createdAt,value
2017-10-10T00:01:47.388Z,100887.64
2017-10-10T00:04:24.680Z,100880.39
2017-10-10T00:07:02.043Z,100883.79
2017-10-10T00:09:37.429Z,100881.19
2017-10-10T00:12:13.517Z,100876.01
2017-10-10T00:17:32.701Z,100877.25
2017-10-10T00:20:09.311Z,100881.07
2017-10-10T00:22:46.149Z,100883.64
2017-10-10T00:25:30.478Z,100881.07
2017-10-10T00:28:09.121Z,100881.94
2017-10-10T00:30:52.376Z,100887.04
2017-10-10T00:33:37.048Z,100876.73
2017-10-10T00:36:22.059Z,100875.82
2017-10-10T00:39:05.345Z,100867.70
2017-10-10T00:41:47.741Z,100864.71
2017-10-10T00:44:30.772Z,100864.64
2017-10-10T00:47:14.608Z,100863.31
2017-10-10T00:49:54.924Z,100857.31
2017-10-10T00:52:30.444Z,100856.48
2017-10-10T00:54:59.549Z,100857.31
2017-10-10T00:57:27.890Z,100853.87
2017-10-10T00:59:56.236Z,100859.39
2017-10-10T01:02:26.968Z,100857.69
2017-10-10T01:04:57.093Z,100857.65
2017-10-10T01:07:25.813Z,100851.23
2017-10-10T01:09:54.458Z,100852.97
2017-10-10T01:12:23.116Z,100844.80
2017-10-10T01:14:51.738Z,100840.91
2017-10-10T01:17:20.462Z,100829.34
2017-10-10T01:19:49.192Z,100837.06
2017-10-10T01:22:17.832Z,100831.05
2017-10-10T01:24:46.137Z,100828.48
2017-10-10T01:27:14.816Z,100827.61
2017-10-10T01:29:43.125Z,100818.20
2017-10-10T01:32:11.818Z,100813.48
2017-10-10T01:34:40.579Z,100805.31
2017-10-10T01:37:09.267Z,100810.00
2017-10-10T01:39:37.645Z,100811.73
2017-10-10T01:42:05.958Z,100806.11
2017-10-10T01:44:34.293Z,100803.99
2017-10-10T01:47:02.893Z,100806.90
2017-10-10T01:49:31.650Z,100798.77
2017-10-10T01:52:00.271Z,100799.19
2017-10-10T01:54:28.905Z,100794.88
2017-10-10T01:56:57.582Z,100797.87
2017-10-10T01:59:26.233Z,100794.84
2017-10-10T02:01:54.861Z,100790.95
2017-10-10T02:04:23.528Z,100787.06
2017-10-10T02:06:52.211Z,100782.34
2017-10-10T02:09:20.867Z,100780.18
2017-10-10T02:11:49.497Z,100775.87
2017-10-10T02:14:18.193Z,100781.84
2017-10-10T02:16:46.837Z,100777.08
2017-10-10T02:19:15.331Z,100768.95
2017-10-10T02:21:43.935Z,100765.06
2017-10-10T02:24:12.699Z,100758.22
2017-10-10T02:26:41.319Z,100759.02
2017-10-10T02:29:09.974Z,100753.41
2017-10-10T02:31:38.655Z,100749.14
2017-10-10T02:34:07.335Z,100745.30
2017-10-10T02:36:36.004Z,100753.83
2017-10-10T02:39:03.942Z,100754.20
2017-10-10T02:41:32.458Z,100746.45
2017-10-10T02:44:01.061Z,100746.04
2017-10-10T02:46:29.662Z,100748.16
2017-10-10T02:48:58.363Z,100745.13
2017-10-10T02:51:27.077Z,100748.53
2017-10-10T02:53:55.736Z,100745.95
2017-10-10T02:56:24.373Z,100744.64
2017-10-10T02:58:53.022Z,100740.33
2017-10-10T03:01:21.731Z,100741.61
2017-10-10T03:03:50.347Z,100738.59
2017-10-10T03:06:18.955Z,100741.08
2017-10-10T03:08:47.621Z,100735.06
2017-10-10T03:11:16.269Z,100737.19
2017-10-10T03:13:48.655Z,100733.33
2017-10-10T03:16:17.270Z,100736.73
2017-10-10T03:18:45.898Z,100728.11
2017-10-10T03:21:14.545Z,100728.94
2017-10-10T03:23:43.156Z,100725.03
2017-10-10T03:26:11.774Z,100726.31
2017-10-10T03:28:42.141Z,100728.89
2017-10-10T03:31:10.794Z,100725.45
2017-10-10T03:33:39.402Z,100724.95
2017-10-10T03:36:08.046Z,100720.23
2017-10-10T03:38:36.694Z,100717.16
2017-10-10T03:41:05.346Z,100717.12
2017-10-10T03:43:33.954Z,100710.23
2017-10-10T03:46:02.617Z,100710.28
2017-10-10T03:48:31.227Z,100708.95
2017-10-10T03:50:59.881Z,100704.19
2017-10-10T03:53:28.479Z,100705.39
2017-10-10T03:55:57.163Z,100701.08
2017-10-10T03:58:25.774Z,100695.90
2017-10-10T04:00:55.317Z,100699.67
2017-10-10T04:03:23.994Z,100694.03
2017-10-10T04:05:52.460Z,100700.00
2017-10-10T04:08:20.923Z,100689.72
2017-10-10T04:10:49.445Z,100688.77
2017-10-10T04:13:18.078Z,100689.17
2017-10-10T04:15:47.035Z,100686.98
2017-10-10T04:18:17.923Z,100689.09
2017-10-10T04:20:48.282Z,100688.59
2017-10-10T04:23:17.010Z,100682.59
2017-10-10T04:25:45.691Z,100679.97
2017-10-10T04:28:14.391Z,100677.77
2017-10-10T04:30:43.051Z,100679.84
2017-10-10T04:33:11.702Z,100676.83
2017-10-10T04:35:40.370Z,100675.91
2017-10-10T04:38:09.047Z,100676.31
2017-10-10T04:40:37.740Z,100672.83
2017-10-10T04:43:06.358Z,100674.08
2017-10-10T04:45:35.030Z,100672.25
2017-10-10T04:48:03.638Z,100672.66
2017-10-10T04:50:32.259Z,100673.49
2017-10-10T04:53:00.930Z,100669.18
2017-10-10T04:55:29.406Z,100675.53
2017-10-10T04:57:57.912Z,100673.33
2017-10-10T05:00:26.304Z,100669.39
2017-10-10T05:02:54.965Z,100674.06
2017-10-10T05:05:23.581Z,100674.06
2017-10-10T05:07:52.242Z,100670.13
2017-10-10T05:10:26.903Z,100674.84
2017-10-10T05:12:55.580Z,100676.88
2017-10-10T05:15:24.213Z,100678.08
2017-10-10T05:17:52.693Z,100674.19
2017-10-10T05:20:21.388Z,100681.36
2017-10-10T05:22:50.030Z,100675.30
2017-10-10T05:25:18.659Z,100680.86
2017-10-10T05:27:47.326Z,100678.61
2017-10-10T05:30:15.990Z,100675.53
2017-10-10T05:32:44.522Z,100671.22
2017-10-10T05:35:13.183Z,100670.27
2017-10-10T05:37:41.846Z,100668.98
2017-10-10T05:40:10.463Z,100665.91
2017-10-10T05:42:39.119Z,100672.30
2017-10-10T05:45:07.731Z,100673.91
2017-10-10T05:47:37.143Z,100667.44
2017-10-10T05:50:05.805Z,100667.85
2017-10-10T05:52:34.451Z,100669.05
2017-10-10T05:55:03.076Z,100667.31
2017-10-10T05:57:35.132Z,100669.88
2017-10-10T06:00:03.610Z,100669.41
2017-10-10T06:02:32.230Z,100667.58
2017-10-10T06:05:00.875Z,100669.70
2017-10-10T06:07:29.487Z,100670.94
2017-10-10T06:09:58.154Z,100673.88
2017-10-10T06:12:26.772Z,100673.43
2017-10-10T06:14:55.436Z,100678.08
2017-10-10T06:17:24.097Z,100680.14
2017-10-10T06:19:52.718Z,100675.45
2017-10-10T06:22:21.394Z,100673.21
2017-10-10T06:24:50.011Z,100679.18
2017-10-10T06:27:18.666Z,100677.89
2017-10-10T06:29:47.194Z,100682.53
2017-10-10T06:32:15.799Z,100676.89
2017-10-10T06:34:44.428Z,100677.30
2017-10-10T06:37:13.138Z,100682.83
2017-10-10T06:39:41.746Z,100678.91
2017-10-10T06:42:10.427Z,100675.42
2017-10-10T06:44:39.054Z,100679.73
2017-10-10T06:47:07.738Z,100681.30
2017-10-10T06:49:36.351Z,100677.82
2017-10-10T06:52:04.917Z,100677.36
2017-10-10T06:54:33.573Z,100674.23
2017-10-10T06:57:02.251Z,100674.19
2017-10-10T06:59:30.880Z,100680.53
2017-10-10T07:01:59.509Z,100680.95
2017-10-10T07:04:28.170Z,100684.59
2017-10-10T07:06:56.796Z,100685.47
2017-10-10T07:09:25.416Z,100689.70
2017-10-10T07:11:54.092Z,100686.16
2017-10-10T07:14:22.718Z,100688.27
2017-10-10T07:16:51.356Z,100693.33
2017-10-10T07:19:20.069Z,100697.10
2017-10-10T07:21:48.686Z,100699.22
2017-10-10T07:24:17.338Z,100705.15
2017-10-10T07:26:45.959Z,100701.25
2017-10-10T07:29:14.622Z,100702.45
2017-10-10T07:31:43.235Z,100703.23
2017-10-10T07:34:11.855Z,100707.05
2017-10-10T07:36:40.528Z,100702.72
2017-10-10T07:39:09.243Z,100712.52
2017-10-10T07:41:37.878Z,100702.22
2017-10-10T07:44:06.503Z,100709.34
2017-10-10T07:46:35.178Z,100713.20
2017-10-10T07:49:03.798Z,100713.12
2017-10-10T07:51:32.257Z,100712.66
2017-10-10T07:54:00.766Z,100711.70
2017-10-10T07:56:29.374Z,100709.91
2017-10-10T07:58:58.034Z,100706.52
2017-10-10T08:01:26.647Z,100702.52
2017-10-10T08:03:55.279Z,100704.25
2017-10-10T08:06:23.950Z,100700.72
2017-10-10T08:08:52.581Z,100705.36
2017-10-10T08:11:21.208Z,100703.98
2017-10-10T08:13:49.868Z,100711.30
2017-10-10T08:16:18.554Z,100702.61
2017-10-10T08:18:47.175Z,100705.05
2017-10-10T08:21:15.790Z,100701.14
2017-10-10T08:23:44.462Z,100701.05
2017-10-10T08:26:13.124Z,100700.54
2017-10-10T08:28:41.736Z,100704.31
2017-10-10T08:31:10.414Z,100709.33
2017-10-10T08:33:39.082Z,100704.97
2017-10-10T08:36:07.780Z,100709.11
2017-10-10T08:38:36.409Z,100708.55
2017-10-10T08:41:05.041Z,100710.58
2017-10-10T08:43:33.573Z,100712.14
2017-10-10T08:46:02.194Z,100712.88
2017-10-10T08:48:30.844Z,100714.45
2017-10-10T08:50:59.507Z,100711.72
2017-10-10T08:53:28.131Z,100706.85
2017-10-10T08:55:56.751Z,100704.97
2017-10-10T08:58:25.428Z,100704.83
2017-10-10T09:00:54.090Z,100702.15
2017-10-10T09:03:22.705Z,100708.00
2017-10-10T09:05:51.319Z,100704.87
2017-10-10T09:08:19.991Z,100701.78
2017-10-10T09:10:48.602Z,100710.66
2017-10-10T09:13:17.215Z,100707.52
2017-10-10T09:15:45.874Z,100710.42
2017-10-10T09:18:14.517Z,100705.13
2017-10-10T09:20:43.131Z,100707.11
2017-10-10T09:23:11.636Z,100707.84
2017-10-10T09:25:40.303Z,100703.88
2017-10-10T09:28:08.777Z,100696.51
2017-10-10T09:30:37.434Z,100703.73
2017-10-10T09:33:06.050Z,100703.18
2017-10-10T09:35:34.704Z,100697.94
2017-10-10T09:38:03.318Z,100698.25
2017-10-10T09:40:32.000Z,100700.05
2017-10-10T09:43:00.611Z,100698.56
2017-10-10T09:45:29.289Z,100703.25
2017-10-10T09:47:57.914Z,100701.87
2017-10-10T09:50:26.558Z,100707.40
2017-10-10T09:52:55.234Z,100702.10
2017-10-10T09:55:23.840Z,100702.92
2017-10-10T09:57:52.511Z,100704.63
2017-10-10T10:00:21.127Z,100699.02
2017-10-10T10:02:49.734Z,100706.24
2017-10-10T10:05:18.398Z,100706.70
2017-10-10T10:07:47.055Z,100712.55
2017-10-10T10:10:15.674Z,100712.55
2017-10-10T10:12:44.354Z,100712.07
2017-10-10T10:15:12.989Z,100704.75
2017-10-10T10:17:41.606Z,100709.40
2017-10-10T10:20:10.270Z,100707.65
2017-10-10T10:22:38.945Z,100708.89
2017-10-10T10:25:07.580Z,100708.48
2017-10-10T10:27:36.714Z,100708.48
2017-10-10T10:30:05.373Z,100705.70
2017-10-10T10:32:33.924Z,100713.40
2017-10-10T10:35:02.555Z,100704.38
2017-10-10T10:37:35.071Z,100705.11
2017-10-10T10:40:03.731Z,100701.66
2017-10-10T10:42:32.397Z,100696.02
2017-10-10T10:45:01.019Z,100696.42
2017-10-10T10:47:31.527Z,100690.34
2017-10-10T10:50:00.489Z,100688.13
2017-10-10T10:52:29.168Z,100696.09
2017-10-10T10:54:57.782Z,100686.45
2017-10-10T10:57:26.454Z,100684.61
2017-10-10T10:59:55.071Z,100677.59
2017-10-10T11:02:23.695Z,100669.70
2017-10-10T11:04:52.353Z,100669.09
2017-10-10T11:07:20.989Z,100663.75
2017-10-10T11:09:49.646Z,100665.70
2017-10-10T11:12:18.279Z,100669.38
2017-10-10T11:14:46.811Z,100665.20
2017-10-10T11:17:15.443Z,100668.55
2017-10-10T11:19:44.107Z,100670.98
2017-10-10T11:22:12.762Z,100672.45
2017-10-10T11:24:41.415Z,100675.71
2017-10-10T11:27:10.031Z,100681.63
2017-10-10T11:29:38.654Z,100686.96
2017-10-10T11:32:07.333Z,100676.91
2017-10-10T11:34:35.812Z,100673.70
2017-10-10T11:37:04.448Z,100673.23
2017-10-10T11:39:33.118Z,100679.34
2017-10-10T11:42:01.743Z,100667.73
2017-10-10T11:44:30.374Z,100666.53
2017-10-10T11:46:59.036Z,100668.50
2017-10-10T11:49:27.642Z,100670.93
2017-10-10T11:51:56.251Z,100670.22
2017-10-10T11:54:24.943Z,100670.56
2017-10-10T11:56:53.579Z,100671.70
2017-10-10T11:59:22.207Z,100671.97
2017-10-10T12:01:50.881Z,100666.23
2017-10-10T12:04:19.507Z,100670.81
2017-10-10T12:06:48.139Z,100669.84
2017-10-10T12:09:16.815Z,100667.11
2017-10-10T12:11:45.511Z,100668.97
2017-10-10T12:14:14.146Z,100668.80
2017-10-10T12:16:42.766Z,100664.77
2017-10-10T12:19:11.458Z,100669.01
2017-10-10T12:21:40.110Z,100668.03
2017-10-10T12:24:08.794Z,100661.05
2017-10-10T12:26:37.418Z,100662.66
2017-10-10T12:29:06.077Z,100658.83
2017-10-10T12:31:34.555Z,100657.13
2017-10-10T12:34:03.091Z,100662.14
2017-10-10T12:36:31.579Z,100650.56
2017-10-10T12:39:00.189Z,100665.60
2017-10-10T12:41:28.853Z,100659.44
2017-10-10T12:43:57.461Z,100668.27
2017-10-10T12:46:26.094Z,100655.36
2017-10-10T12:48:54.760Z,100656.55
2017-10-10T12:51:23.396Z,100652.98
2017-10-10T12:53:52.002Z,100653.29
2017-10-10T12:56:20.662Z,100657.45
2017-10-10T12:58:49.144Z,100657.47
2017-10-10T13:01:17.622Z,100657.81
2017-10-10T13:03:46.287Z,100652.52
2017-10-10T13:06:14.901Z,100649.47
2017-10-10T13:08:43.544Z,100651.70
2017-10-10T13:11:12.234Z,100639.81
2017-10-10T13:13:40.843Z,100642.29
2017-10-10T13:16:09.470Z,100643.17
2017-10-10T13:18:38.122Z,100631.91
2017-10-10T13:21:06.745Z,100628.91
2017-10-10T13:23:35.359Z,100635.59
2017-10-10T13:26:04.051Z,100637.02
2017-10-10T13:28:32.671Z,100636.84
2017-10-10T13:31:01.326Z,100637.36
2017-10-10T13:33:30.016Z,100643.25
2017-10-10T13:35:58.635Z,100642.73
2017-10-10T13:38:26.967Z,100632.39
2017-10-10T13:40:55.713Z,100629.19
2017-10-10T13:43:24.227Z,100632.18
2017-10-10T13:45:52.695Z,100625.09
2017-10-10T13:48:21.393Z,100625.92
2017-10-10T13:50:50.021Z,100629.72
2017-10-10T13:53:18.635Z,100619.80
2017-10-10T13:55:47.287Z,100615.51
2017-10-10T13:58:15.942Z,100621.22
2017-10-10T14:00:44.559Z,100624.97
2017-10-10T14:03:13.184Z,100625.52
2017-10-10T14:05:41.850Z,100628.92
2017-10-10T14:08:10.467Z,100616.93
2017-10-10T14:10:39.085Z,100617.03
2017-10-10T14:13:07.746Z,100616.52
2017-10-10T14:15:36.366Z,100626.44
2017-10-10T14:18:05.046Z,100623.97
2017-10-10T14:20:33.659Z,100618.90
2017-10-10T14:23:02.329Z,100628.41
2017-10-10T14:25:30.946Z,100622.94
2017-10-10T14:27:59.597Z,100624.28
2017-10-10T14:30:28.237Z,100621.75
2017-10-10T14:32:56.936Z,100612.88
2017-10-10T14:35:25.568Z,100622.13
2017-10-10T14:37:54.191Z,100613.81
2017-10-10T14:40:22.852Z,100615.88
2017-10-10T14:42:51.461Z,100618.36
2017-10-10T14:45:20.129Z,100614.72
2017-10-10T14:47:48.760Z,100615.88
2017-10-10T14:50:17.388Z,100616.35
2017-10-10T14:52:46.082Z,100614.77
2017-10-10T14:55:14.705Z,100612.55
2017-10-10T14:57:43.322Z,100609.37
2017-10-10T15:00:11.983Z,100610.41
2017-10-10T15:02:40.617Z,100606.22
2017-10-10T15:05:09.278Z,100604.98
2017-10-10T15:07:38.660Z,100605.19
2017-10-10T15:10:07.270Z,100600.44
2017-10-10T15:12:35.931Z,100606.55
2017-10-10T15:15:04.613Z,100601.54
2017-10-10T15:17:36.192Z,100607.28
2017-10-10T15:20:04.851Z,100602.67
2017-10-10T15:22:33.454Z,100604.08
2017-10-10T15:25:02.123Z,100600.72
2017-10-10T15:27:34.718Z,100608.69
2017-10-10T15:30:03.370Z,100608.69
2017-10-10T15:32:31.987Z,100612.05
2017-10-10T15:35:00.605Z,100608.23
2017-10-10T15:37:30.044Z,100609.28
2017-10-10T15:39:58.843Z,100610.96
2017-10-10T15:42:27.506Z,100609.74
2017-10-10T15:44:55.990Z,100607.20
2017-10-10T15:47:24.494Z,100618.57
2017-10-10T15:49:53.112Z,100625.64
2017-10-10T15:52:21.757Z,100621.82
2017-10-10T15:54:50.376Z,100612.78
2017-10-10T15:57:19.033Z,100611.91
2017-10-10T15:59:47.653Z,100603.44
2017-10-10T16:02:16.320Z,100609.95
2017-10-10T16:04:44.943Z,100612.54
2017-10-10T16:07:13.602Z,100607.89
2017-10-10T16:09:42.092Z,100610.94
2017-10-10T16:12:10.766Z,100607.12
2017-10-10T16:14:39.380Z,100612.28
2017-10-10T16:17:08.034Z,100612.43
2017-10-10T16:19:36.662Z,100619.34
2017-10-10T16:22:05.329Z,100613.31
2017-10-10T16:24:33.952Z,100614.03
2017-10-10T16:27:02.950Z,100614.95
2017-10-10T16:29:31.574Z,100617.95
2017-10-10T16:32:00.054Z,100618.41
2017-10-10T16:34:28.616Z,100624.41
2017-10-10T16:36:57.079Z,100615.37
2017-10-10T16:39:25.757Z,100620.02
2017-10-10T16:41:54.436Z,100618.83
2017-10-10T16:44:23.055Z,100626.64
2017-10-10T16:46:51.736Z,100621.52
2017-10-10T16:49:20.355Z,100623.23
2017-10-10T16:51:49.135Z,100622.81
2017-10-10T16:54:17.745Z,100629.83
2017-10-10T16:56:46.406Z,100634.12
2017-10-10T16:59:15.026Z,100623.89
2017-10-10T17:01:43.647Z,100626.48
2017-10-10T17:04:12.327Z,100623.12
2017-10-10T17:06:40.942Z,100625.28
2017-10-10T17:09:09.558Z,100627.77
2017-10-10T17:11:38.220Z,100624.00
2017-10-10T17:14:06.845Z,100623.84
2017-10-10T17:16:35.465Z,100626.06
2017-10-10T17:19:04.213Z,100627.41
2017-10-10T17:21:36.483Z,100632.16
2017-10-10T17:24:05.377Z,100633.39
2017-10-10T17:26:34.400Z,100632.61
2017-10-10T17:29:10.503Z,100634.83
2017-10-10T17:31:49.693Z,100632.05
2017-10-10T17:34:33.266Z,100633.44
2017-10-10T17:39:58.978Z,100634.27
2017-10-10T17:42:38.743Z,100641.23
2017-10-10T17:45:21.093Z,100632.61
2017-10-10T17:50:40.765Z,100642.58
2017-10-10T17:53:20.810Z,100641.34
2017-10-10T17:56:00.083Z,100640.92
2017-10-10T17:58:41.034Z,100639.17
2017-10-10T18:01:20.627Z,100636.22
2017-10-10T18:04:00.252Z,100631.06
2017-10-10T18:06:40.151Z,100636.08
2017-10-10T18:09:21.331Z,100628.43
2017-10-10T18:11:59.798Z,100635.30
2017-10-10T18:14:43.964Z,100628.75
2017-10-10T18:17:22.182Z,100633.03
2017-10-10T18:20:03.431Z,100635.25
2017-10-10T18:22:42.397Z,100630.96
2017-10-10T18:25:22.182Z,100642.62
2017-10-10T18:27:54.684Z,100643.81
2017-10-10T18:30:30.772Z,100640.72
2017-10-10T18:33:09.378Z,100643.72
2017-10-10T18:35:53.421Z,100645.47
2017-10-10T18:38:38.543Z,100651.56
2017-10-10T18:41:23.305Z,100647.54
2017-10-10T18:44:07.283Z,100645.47
2017-10-10T18:46:51.901Z,100646.71
2017-10-10T18:49:39.974Z,100644.13
2017-10-10T18:52:28.544Z,100648.93
2017-10-10T18:55:15.638Z,100652.29
2017-10-10T18:57:51.361Z,100646.66
2017-10-10T19:00:27.522Z,100646.25
2017-10-10T19:02:59.381Z,100649.25
2017-10-10T19:05:31.769Z,100643.20
2017-10-10T19:08:01.818Z,100652.66
2017-10-10T19:10:31.780Z,100652.19
2017-10-10T19:13:03.200Z,100649.97
2017-10-10T19:15:36.074Z,100644.44
2017-10-10T19:18:06.873Z,100643.47
2017-10-10T19:20:37.185Z,100646.00
2017-10-10T19:23:06.890Z,100653.33
2017-10-10T19:25:37.734Z,100658.18
2017-10-10T19:28:14.182Z,100649.88
2017-10-10T19:30:44.941Z,100652.41
2017-10-10T19:33:14.845Z,100643.77
2017-10-10T19:35:51.979Z,100649.34
2017-10-10T19:38:22.021Z,100651.11
2017-10-10T19:40:52.238Z,100650.28
2017-10-10T19:43:22.702Z,100652.86
2017-10-10T19:45:59.953Z,100664.02
2017-10-10T19:48:28.909Z,100662.73
2017-10-10T19:50:57.531Z,100665.00
2017-10-10T19:53:26.190Z,100660.59
2017-10-10T19:55:54.805Z,100659.30
2017-10-10T19:58:23.459Z,100660.25
2017-10-10T20:00:52.085Z,100666.65
2017-10-10T20:03:20.746Z,100678.27
2017-10-10T20:05:49.245Z,100675.69
2017-10-10T20:08:17.867Z,100686.06
2017-10-10T20:10:46.580Z,100697.16
2017-10-10T20:13:15.259Z,100694.09
2017-10-10T20:15:43.874Z,100693.59
2017-10-10T20:18:12.494Z,100701.96
2017-10-10T20:20:41.180Z,100710.93
2017-10-10T20:23:09.795Z,100713.06
2017-10-10T20:25:38.410Z,100714.34
2017-10-10T20:28:07.068Z,100714.29
2017-10-10T20:30:35.695Z,100713.51
2017-10-10T20:33:04.327Z,100721.20
2017-10-10T20:35:32.982Z,100729.27
2017-10-10T20:38:01.652Z,100722.91
2017-10-10T20:40:30.259Z,100729.41
2017-10-10T20:42:58.729Z,100734.02
2017-10-10T20:45:27.404Z,100725.91
2017-10-10T20:47:56.027Z,100737.84
2017-10-10T20:50:24.507Z,100732.27
2017-10-10T20:52:53.177Z,100728.07
2017-10-10T20:55:21.782Z,100729.41
2017-10-10T20:57:51.131Z,100728.53
2017-10-10T21:00:19.811Z,100730.66
2017-10-10T21:02:48.479Z,100723.39
2017-10-10T21:05:16.967Z,100726.31
2017-10-10T21:07:45.622Z,100724.20
2017-10-10T21:10:14.225Z,100728.14
2017-10-10T21:12:42.895Z,100730.23
2017-10-10T21:15:11.510Z,100725.13
2017-10-10T21:17:40.127Z,100727.20
2017-10-10T21:20:09.075Z,100728.90
2017-10-10T21:22:37.779Z,100727.66
2017-10-10T21:25:06.401Z,100728.90
2017-10-10T21:27:39.157Z,100728.07
2017-10-10T21:30:07.771Z,100724.66
2017-10-10T21:32:36.286Z,100723.44
2017-10-10T21:35:04.895Z,100723.95
2017-10-10T21:37:38.091Z,100723.48
2017-10-10T21:40:06.566Z,100725.14
2017-10-10T21:42:35.182Z,100724.36
2017-10-10T21:45:03.891Z,100725.70
2017-10-10T21:47:36.740Z,100725.55
2017-10-10T21:50:05.395Z,100718.67
2017-10-10T21:52:34.089Z,100724.27
2017-10-10T21:55:02.694Z,100719.20
2017-10-10T21:57:36.434Z,100717.03
2017-10-10T22:00:04.775Z,100716.11
2017-10-10T22:02:34.658Z,100713.98
2017-10-10T22:05:03.396Z,100708.41
2017-10-10T22:07:35.640Z,100710.58
2017-10-10T22:10:04.360Z,100703.66
2017-10-10T22:12:33.022Z,100705.93
2017-10-10T22:15:01.635Z,100704.59
2017-10-10T22:17:30.255Z,100706.30
2017-10-10T22:19:58.782Z,100698.97
2017-10-10T22:22:27.401Z,100706.70
2017-10-10T22:24:56.023Z,100704.64
2017-10-10T22:27:24.731Z,100702.89
2017-10-10T22:29:53.382Z,100708.92
2017-10-10T22:32:21.992Z,100705.42
2017-10-10T22:34:50.600Z,100711.09
2017-10-10T22:37:19.251Z,100711.51
2017-10-10T22:39:47.890Z,100712.48
2017-10-10T22:42:16.533Z,100711.61
2017-10-10T22:44:45.210Z,100707.73
2017-10-10T22:47:13.817Z,100708.88
2017-10-10T22:49:42.442Z,100716.25
2017-10-10T22:52:11.131Z,100715.02
2017-10-10T22:54:39.752Z,100717.59
2017-10-10T22:57:08.383Z,100715.37
2017-10-10T22:59:36.897Z,100708.09
2017-10-10T23:02:05.425Z,100712.02
2017-10-10T23:04:34.052Z,100708.56
2017-10-10T23:07:02.705Z,100712.44
2017-10-10T23:09:31.311Z,100702.58
2017-10-10T23:11:59.975Z,100705.98
2017-10-10T23:14:28.590Z,100702.52
2017-10-10T23:16:57.218Z,100699.48
2017-10-10T23:19:25.901Z,100692.66
2017-10-10T23:21:54.538Z,100691.05
2017-10-10T23:24:23.201Z,100690.49
2017-10-10T23:26:51.823Z,100690.55
2017-10-10T23:29:20.494Z,100692.30
2017-10-10T23:31:49.111Z,100697.05
2017-10-10T23:34:17.739Z,100695.30
2017-10-10T23:36:46.401Z,100703.03
2017-10-10T23:39:15.126Z,100699.77
2017-10-10T23:41:43.762Z,100695.75
2017-10-10T23:44:12.423Z,100699.21
2017-10-10T23:46:41.086Z,100693.69
2017-10-10T23:49:09.708Z,100698.38
2017-10-10T23:51:38.375Z,100694.52
2017-10-10T23:54:07.002Z,100688.16
2017-10-10T23:56:35.627Z,100689.50
2017-10-10T23:59:04.296Z,100683.77
